createdAt,value
2023-04-15T00:00:07.002Z,84.33
2023-04-15T00:01:06.961Z,84.22
2023-04-15T00:02:07.008Z,84.43
2023-04-15T00:03:07.116Z,85.05
2023-04-15T00:04:07.001Z,85.05
2023-04-15T00:05:06.909Z,85.36
2023-04-15T00:06:06.928Z,85.26
2023-04-15T00:07:06.916Z,85.26
2023-04-15T00:08:06.908Z,85.61
2023-04-15T00:09:06.869Z,85.61
2023-04-15T00:10:06.853Z,85.92
2023-04-15T00:11:06.857Z,85.82
2023-04-15T00:12:06.846Z,85.82
2023-04-15T00:13:06.856Z,86.02
2023-04-15T00:14:06.815Z,86.65
2023-04-15T00:15:06.803Z,86.54
2023-04-15T00:16:06.816Z,86.65
2023-04-15T00:17:06.790Z,86.75
2023-04-15T00:18:06.808Z,87.16
2023-04-15T00:19:06.833Z,87.27
2023-04-15T00:20:06.748Z,87.27
2023-04-15T00:21:06.736Z,87.16
2023-04-15T00:22:06.725Z,87.06
2023-04-15T00:23:06.725Z,86.85
2023-04-15T00:24:06.690Z,86.75
2023-04-15T00:25:06.695Z,86.85
2023-04-15T00:26:06.671Z,86.96
2023-04-15T00:27:06.704Z,87.06
2023-04-15T00:28:06.638Z,87.37
2023-04-15T00:29:06.680Z,87.68
2023-04-15T00:30:06.648Z,87.99
2023-04-15T00:31:06.686Z,88.20
2023-04-15T00:32:06.641Z,88.20
2023-04-15T00:33:06.623Z,88.20
2023-04-15T00:34:06.622Z,88.09
2023-04-15T00:35:06.582Z,87.95
2023-04-15T00:36:06.549Z,88.26
2023-04-15T00:37:06.611Z,88.98
2023-04-15T00:38:06.537Z,89.09
2023-04-15T00:39:06.531Z,88.57
2023-04-15T00:40:06.576Z,88.30
2023-04-15T00:41:06.500Z,88.82
2023-04-15T00:42:06.529Z,88.92
2023-04-15T00:43:06.517Z,88.71
2023-04-15T00:44:06.497Z,88.71
2023-04-15T00:45:06.469Z,88.86
2023-04-15T00:46:06.505Z,89.44
2023-04-15T00:47:06.484Z,89.17
2023-04-15T00:48:06.465Z,88.96
2023-04-15T00:49:06.408Z,88.65
2023-04-15T00:50:06.437Z,88.55
2023-04-15T00:51:06.447Z,88.55
2023-04-15T00:52:06.400Z,88.24
2023-04-15T00:53:06.489Z,88.34
2023-04-15T00:54:06.388Z,88.03
2023-04-15T00:55:06.356Z,87.51
2023-04-15T00:56:06.366Z,86.99
2023-04-15T00:57:06.336Z,86.99
2023-04-15T00:58:06.344Z,87.10
2023-04-15T00:59:06.322Z,87.55
2023-04-15T01:00:06.313Z,87.66
2023-04-15T01:01:06.400Z,87.45
2023-04-15T01:02:06.451Z,87.35
2023-04-15T01:03:06.415Z,87.04
2023-04-15T01:04:06.371Z,87.04
2023-04-15T01:05:06.291Z,87.10
2023-04-15T01:06:06.239Z,87.14
2023-04-15T01:07:06.243Z,87.14
2023-04-15T01:08:06.235Z,87.35
2023-04-15T01:09:06.246Z,87.66
2023-04-15T01:10:06.206Z,88.18
2023-04-15T01:11:06.180Z,88.39
2023-04-15T01:12:06.155Z,88.59
2023-04-15T01:13:06.192Z,88.84
2023-04-15T01:14:06.155Z,89.15
2023-04-15T01:15:06.148Z,89.46
2023-04-15T01:16:06.152Z,89.56
2023-04-15T01:17:06.097Z,89.77
2023-04-15T01:18:06.100Z,89.98
2023-04-15T01:19:06.088Z,90.29
2023-04-15T01:20:06.069Z,90.44
2023-04-15T01:21:06.071Z,90.64
2023-04-15T01:22:06.060Z,90.64
2023-04-15T01:23:06.062Z,90.85
2023-04-15T01:24:06.087Z,91.16
2023-04-15T01:25:06.020Z,90.95
2023-04-15T01:26:06.006Z,90.95
2023-04-15T01:27:05.975Z,91.06
2023-04-15T01:28:13.006Z,90.85
2023-04-15T01:29:05.961Z,90.85
2023-04-15T01:30:14.349Z,90.75
2023-04-15T01:31:13.319Z,90.64
2023-04-15T01:32:13.461Z,90.75
2023-04-15T01:33:12.947Z,90.75
2023-04-15T01:34:05.901Z,90.95
2023-04-15T01:35:05.916Z,91.16
2023-04-15T01:36:06.203Z,91.16
2023-04-15T01:37:05.897Z,91.06
2023-04-15T01:38:05.874Z,90.85
2023-04-15T01:39:06.280Z,90.85
2023-04-15T01:40:05.844Z,90.95
2023-04-15T01:41:05.866Z,90.89
2023-04-15T01:42:05.828Z,91.00
2023-04-15T01:43:05.830Z,91.10
2023-04-15T01:44:05.842Z,91.31
2023-04-15T01:45:05.790Z,91.41
2023-04-15T01:46:05.791Z,91.52
2023-04-15T01:47:05.780Z,91.52
2023-04-15T01:48:05.815Z,91.52
2023-04-15T01:49:05.750Z,91.31
2023-04-15T01:50:05.751Z,91.10
2023-04-15T01:51:05.753Z,91.10
2023-04-15T01:52:05.718Z,90.79
2023-04-15T01:53:05.735Z,90.89
2023-04-15T01:54:05.719Z,90.79
2023-04-15T01:55:05.716Z,90.79
2023-04-15T01:56:05.718Z,90.58
2023-04-15T01:57:05.703Z,90.69
2023-04-15T01:58:05.703Z,90.58
2023-04-15T01:59:05.699Z,90.37
2023-04-15T02:00:05.628Z,90.27
2023-04-15T02:01:05.671Z,90.27
2023-04-15T02:02:05.725Z,90.27
2023-04-15T02:03:05.752Z,90.27
2023-04-15T02:04:05.652Z,90.27
2023-04-15T02:05:05.633Z,90.48
2023-04-15T02:06:05.575Z,90.48
2023-04-15T02:07:05.597Z,90.58
2023-04-15T02:08:05.538Z,90.72
2023-04-15T02:09:05.535Z,90.83
2023-04-15T02:10:05.523Z,90.93
2023-04-15T02:11:05.554Z,91.14
2023-04-15T02:12:05.519Z,91.24
2023-04-15T02:13:05.534Z,91.35
2023-04-15T02:14:05.481Z,91.35
2023-04-15T02:15:05.494Z,91.45
2023-04-15T02:16:05.478Z,91.66
2023-04-15T02:17:05.467Z,91.76
2023-04-15T02:18:05.445Z,92.03
2023-04-15T02:19:05.452Z,91.86
2023-04-15T02:20:05.443Z,91.66
2023-04-15T02:21:05.413Z,91.55
2023-04-15T02:22:05.417Z,91.76
2023-04-15T02:23:05.422Z,91.76
2023-04-15T02:24:05.387Z,91.76
2023-04-15T02:25:05.366Z,91.66
2023-04-15T02:26:05.358Z,91.66
2023-04-15T02:27:05.383Z,91.66
2023-04-15T02:28:05.690Z,91.76
2023-04-15T02:29:05.324Z,92.07
2023-04-15T02:30:05.634Z,92.38
2023-04-15T02:31:05.292Z,92.18
2023-04-15T02:32:05.489Z,92.28
2023-04-15T02:33:05.288Z,92.32
2023-04-15T02:34:05.279Z,92.32
2023-04-15T02:35:05.349Z,92.53
2023-04-15T02:36:05.244Z,92.74
2023-04-15T02:37:05.231Z,92.74
2023-04-15T02:38:05.241Z,92.94
2023-04-15T02:39:05.233Z,92.94
2023-04-15T02:40:05.214Z,92.84
2023-04-15T02:41:05.229Z,92.94
2023-04-15T02:42:05.199Z,93.05
2023-04-15T02:43:05.159Z,93.16
2023-04-15T02:44:05.179Z,93.26
2023-04-15T02:45:05.143Z,93.37
2023-04-15T02:46:05.202Z,93.37
2023-04-15T02:47:05.168Z,93.57
2023-04-15T02:48:05.116Z,93.53
2023-04-15T02:49:05.129Z,93.43
2023-04-15T02:50:05.155Z,93.22
2023-04-15T02:51:05.087Z,93.22
2023-04-15T02:52:05.103Z,93.53
2023-04-15T02:53:05.059Z,93.43
2023-04-15T02:54:05.052Z,93.43
2023-04-15T02:55:05.054Z,93.53
2023-04-15T02:56:05.019Z,93.63
2023-04-15T02:57:05.040Z,93.53
2023-04-15T02:58:05.037Z,93.53
2023-04-15T02:59:05.004Z,93.43
2023-04-15T03:00:05.004Z,93.43
2023-04-15T03:01:04.990Z,93.43
2023-04-15T03:02:05.045Z,93.43
2023-04-15T03:03:05.229Z,93.32
2023-04-15T03:04:05.137Z,93.32
2023-04-15T03:05:04.939Z,93.68
2023-04-15T03:06:04.906Z,93.63
2023-04-15T03:07:04.919Z,93.84
2023-04-15T03:08:04.930Z,93.84
2023-04-15T03:09:04.870Z,93.84
2023-04-15T03:10:04.865Z,93.88
2023-04-15T03:11:12.396Z,93.78
2023-04-15T03:12:12.861Z,93.78
2023-04-15T03:13:11.864Z,93.88
2023-04-15T03:14:04.822Z,93.88
2023-04-15T03:15:04.801Z,93.68
2023-04-15T03:16:04.860Z,93.68
2023-04-15T03:17:11.832Z,93.68
2023-04-15T03:18:04.759Z,93.47
2023-04-15T03:19:04.760Z,93.16
2023-04-15T03:20:04.760Z,92.74
2023-04-15T03:21:04.741Z,92.43
2023-04-15T03:22:04.743Z,92.32
2023-04-15T03:23:04.728Z,92.43
2023-04-15T03:24:04.704Z,92.53
2023-04-15T03:25:04.717Z,92.74
2023-04-15T03:26:04.680Z,93.05
2023-04-15T03:27:04.688Z,93.26
2023-04-15T03:28:04.665Z,93.37
2023-04-15T03:29:04.669Z,93.37
2023-04-15T03:30:04.644Z,93.37
2023-04-15T03:31:04.667Z,93.26
2023-04-15T03:32:04.627Z,93.37
2023-04-15T03:33:04.648Z,93.37
2023-04-15T03:34:04.595Z,93.26
2023-04-15T03:35:04.586Z,93.37
2023-04-15T03:36:04.592Z,93.26
2023-04-15T03:37:04.557Z,93.41
2023-04-15T03:38:04.570Z,93.68
2023-04-15T03:39:04.571Z,93.68
2023-04-15T03:40:04.526Z,93.78
2023-04-15T03:41:04.552Z,93.93
2023-04-15T03:42:04.514Z,93.93
2023-04-15T03:43:04.504Z,94.13
2023-04-15T03:44:04.557Z,94.03
2023-04-15T03:45:04.486Z,93.93
2023-04-15T03:46:04.524Z,93.93
2023-04-15T03:47:04.484Z,94.03
2023-04-15T03:48:16.635Z,94.13
2023-04-15T03:49:05.426Z,94.03
2023-04-15T03:50:04.443Z,93.93
2023-04-15T03:51:04.407Z,93.72
2023-04-15T03:52:04.430Z,93.82
2023-04-15T03:53:04.402Z,93.93
2023-04-15T03:54:04.373Z,94.03
2023-04-15T03:55:04.368Z,93.93
2023-04-15T03:56:04.408Z,93.93
2023-04-15T03:57:04.344Z,93.93
2023-04-15T03:58:04.340Z,93.93
2023-04-15T03:59:04.329Z,93.82
2023-04-15T04:00:04.384Z,93.72
2023-04-15T04:01:04.328Z,93.72
2023-04-15T04:02:04.414Z,93.82
2023-04-15T04:03:04.483Z,93.82
2023-04-15T04:04:04.369Z,93.93
2023-04-15T04:05:04.253Z,93.82
2023-04-15T04:06:04.289Z,93.93
2023-04-15T04:07:04.241Z,93.82
2023-04-15T04:08:04.247Z,94.03
2023-04-15T04:09:04.214Z,94.34
2023-04-15T04:10:04.226Z,94.34
2023-04-15T04:11:04.261Z,94.55
2023-04-15T04:12:04.218Z,94.49
2023-04-15T04:13:04.223Z,94.38
2023-04-15T04:14:04.152Z,94.38
2023-04-15T04:15:04.130Z,94.18
2023-04-15T04:16:04.204Z,94.59
2023-04-15T04:17:04.151Z,94.70
2023-04-15T04:18:04.151Z,94.70
2023-04-15T04:19:04.187Z,94.80
2023-04-15T04:20:04.067Z,94.80
2023-04-15T04:21:04.093Z,94.90
2023-04-15T04:22:04.068Z,95.01
2023-04-15T04:23:04.034Z,95.01
2023-04-15T04:24:04.032Z,95.01
2023-04-15T04:25:04.073Z,95.01
2023-04-15T04:26:04.036Z,94.80
2023-04-15T04:27:04.017Z,94.80
2023-04-15T04:28:03.992Z,94.59
2023-04-15T04:29:04.331Z,94.49
2023-04-15T04:30:03.967Z,94.49
2023-04-15T04:31:04.001Z,94.38
2023-04-15T04:32:04.250Z,94.28
2023-04-15T04:33:03.963Z,94.18
2023-04-15T04:34:03.926Z,94.07
2023-04-15T04:35:03.901Z,94.07
2023-04-15T04:36:03.922Z,94.18
2023-04-15T04:37:03.929Z,94.28
2023-04-15T04:38:03.922Z,94.28
2023-04-15T04:39:03.891Z,94.28
2023-04-15T04:40:03.876Z,94.28
2023-04-15T04:41:03.884Z,94.38
2023-04-15T04:42:03.874Z,94.49
2023-04-15T04:43:03.836Z,94.49
2023-04-15T04:44:03.821Z,94.49
2023-04-15T04:45:03.809Z,94.64
2023-04-15T04:46:03.853Z,94.59
2023-04-15T04:47:03.789Z,94.74
2023-04-15T04:48:03.804Z,94.64
2023-04-15T04:49:03.886Z,94.84
2023-04-15T04:50:03.793Z,94.84
2023-04-15T04:51:03.773Z,94.84
2023-04-15T04:52:03.728Z,94.84
2023-04-15T04:53:03.711Z,95.05
2023-04-15T04:54:03.991Z,95.05
2023-04-15T04:55:03.698Z,95.15
2023-04-15T04:56:03.702Z,95.47
2023-04-15T04:57:03.655Z,95.57
2023-04-15T04:58:11.922Z,95.67
2023-04-15T04:59:03.948Z,95.67
2023-04-15T05:00:03.628Z,95.78
2023-04-15T05:01:03.641Z,95.89
2023-04-15T05:02:10.657Z,95.89
2023-04-15T05:03:11.203Z,95.99
2023-04-15T05:04:03.799Z,95.99
2023-04-15T05:05:11.621Z,95.99
2023-04-15T05:06:03.557Z,96.09
2023-04-15T05:07:03.543Z,96.41
2023-04-15T05:08:03.806Z,96.30
2023-04-15T05:09:03.824Z,96.09
2023-04-15T05:10:03.819Z,95.99
2023-04-15T05:11:03.935Z,95.89
2023-04-15T05:12:03.489Z,95.99
2023-04-15T05:13:03.494Z,96.09
2023-04-15T05:14:03.465Z,96.20
2023-04-15T05:15:03.462Z,96.09
2023-04-15T05:16:03.670Z,96.20
2023-04-15T05:17:03.447Z,96.20
2023-04-15T05:18:03.494Z,96.20
2023-04-15T05:19:03.557Z,96.20
2023-04-15T05:20:03.438Z,96.41
2023-04-15T05:21:03.408Z,96.30
2023-04-15T05:22:03.404Z,96.15
2023-04-15T05:23:03.379Z,95.99
2023-04-15T05:24:03.363Z,96.04
2023-04-15T05:25:03.698Z,96.25
2023-04-15T05:26:06.164Z,96.04
2023-04-15T05:27:03.711Z,96.04
2023-04-15T05:28:03.348Z,96.04
2023-04-15T05:29:03.464Z,95.84
2023-04-15T05:30:03.292Z,95.94
2023-04-15T05:31:03.336Z,95.79
2023-04-15T05:32:03.292Z,95.59
2023-04-15T05:33:03.284Z,95.38
2023-04-15T05:34:03.282Z,94.92
2023-04-15T05:35:03.525Z,94.82
2023-04-15T05:36:03.234Z,94.71
2023-04-15T05:37:03.204Z,94.30
2023-04-15T05:38:03.207Z,94.05
2023-04-15T05:39:03.410Z,93.95
2023-04-15T05:40:03.189Z,94.26
2023-04-15T05:41:03.215Z,94.32
2023-04-15T05:42:03.173Z,94.01
2023-04-15T05:43:03.183Z,93.49
2023-04-15T05:44:03.131Z,93.13
2023-04-15T05:45:03.162Z,93.02
2023-04-15T05:46:03.125Z,92.72
2023-04-15T05:47:03.105Z,92.30
2023-04-15T05:48:03.082Z,91.68
2023-04-15T05:49:03.284Z,91.02
2023-04-15T05:50:03.181Z,90.60
2023-04-15T05:51:03.080Z,90.08
2023-04-15T05:52:03.036Z,89.77
2023-04-15T05:53:03.033Z,89.87
2023-04-15T05:54:03.010Z,89.83
2023-04-15T05:55:03.036Z,89.83
2023-04-15T05:56:02.994Z,89.83
2023-04-15T05:57:03.016Z,89.94
2023-04-15T05:58:02.963Z,90.00
2023-04-15T05:59:03.085Z,89.69
2023-04-15T06:00:02.972Z,89.38
2023-04-15T06:01:02.960Z,89.23
2023-04-15T06:02:02.994Z,89.03
2023-04-15T06:03:02.945Z,88.92
2023-04-15T06:04:02.980Z,88.61
2023-04-15T06:05:03.037Z,88.09
2023-04-15T06:06:03.133Z,87.74
2023-04-15T06:07:02.906Z,87.74
2023-04-15T06:08:02.883Z,87.64
2023-04-15T06:09:02.990Z,87.54
2023-04-15T06:10:02.855Z,87.29
2023-04-15T06:11:02.906Z,87.08
2023-04-15T06:12:02.816Z,86.77
2023-04-15T06:13:02.806Z,86.52
2023-04-15T06:14:02.829Z,86.52
2023-04-15T06:15:02.805Z,86.11
2023-04-15T06:16:02.818Z,85.70
2023-04-15T06:17:02.820Z,85.08
2023-04-15T06:18:02.797Z,85.18
2023-04-15T06:19:02.974Z,85.35
2023-04-15T06:20:02.764Z,84.83
2023-04-15T06:21:02.766Z,84.52
2023-04-15T06:22:02.713Z,84.31
2023-04-15T06:23:02.716Z,84.11
2023-04-15T06:24:02.681Z,83.80
2023-04-15T06:25:02.669Z,83.70
2023-04-15T06:26:02.723Z,83.76
2023-04-15T06:27:02.670Z,83.76
2023-04-15T06:28:02.638Z,83.86
2023-04-15T06:29:02.925Z,83.65
2023-04-15T06:30:02.621Z,83.45
2023-04-15T06:31:02.638Z,83.34
2023-04-15T06:32:02.626Z,83.65
2023-04-15T06:33:02.616Z,83.65
2023-04-15T06:34:02.570Z,83.86
2023-04-15T06:35:02.583Z,84.17
2023-04-15T06:36:02.564Z,84.17
2023-04-15T06:37:04.476Z,84.17
2023-04-15T06:38:02.528Z,84.28
2023-04-15T06:39:02.779Z,84.48
2023-04-15T06:40:02.562Z,84.44
2023-04-15T06:41:02.492Z,84.65
2023-04-15T06:42:09.500Z,84.65
2023-04-15T06:43:09.511Z,84.55
2023-04-15T06:44:09.558Z,84.65
2023-04-15T06:45:09.457Z,84.72
2023-04-15T06:46:09.510Z,84.72
2023-04-15T06:47:09.447Z,83.78
2023-04-15T06:48:09.436Z,83.68
2023-04-15T06:49:02.602Z,83.78
2023-04-15T06:50:02.473Z,83.64
2023-04-15T06:51:02.362Z,83.03
2023-04-15T06:52:02.386Z,82.82
2023-04-15T06:53:02.385Z,82.37
2023-04-15T06:54:02.368Z,82.57
2023-04-15T06:55:02.368Z,82.74
2023-04-15T06:56:02.367Z,81.61
2023-04-15T06:57:02.324Z,81.09
2023-04-15T06:58:02.323Z,81.40
2023-04-15T06:59:02.482Z,81.09
2023-04-15T07:00:02.282Z,81.20
2023-04-15T07:01:02.379Z,81.26
2023-04-15T07:02:02.309Z,80.33
2023-04-15T07:03:02.320Z,80.33
2023-04-15T07:04:02.249Z,80.33
2023-04-15T07:05:02.233Z,80.23
2023-04-15T07:06:02.254Z,80.19
2023-04-15T07:07:02.206Z,79.64
2023-04-15T07:08:02.197Z,78.92
2023-04-15T07:09:02.378Z,78.82
2023-04-15T07:10:02.209Z,78.61
2023-04-15T07:11:02.158Z,78.89
2023-04-15T07:12:02.154Z,78.75
2023-04-15T07:13:02.213Z,78.33
2023-04-15T07:14:02.161Z,77.89
2023-04-15T07:15:02.125Z,76.97
2023-04-15T07:16:02.110Z,76.97
2023-04-15T07:17:02.224Z,77.03
2023-04-15T07:18:02.132Z,76.72
2023-04-15T07:19:04.865Z,76.62
2023-04-15T07:20:02.124Z,75.97
2023-04-15T07:21:02.823Z,75.97
2023-04-15T07:22:02.048Z,75.45
2023-04-15T07:23:02.070Z,75.56
2023-04-15T07:24:02.306Z,74.84
2023-04-15T07:25:02.060Z,75.35
2023-04-15T07:26:01.995Z,74.43
2023-04-15T07:27:02.004Z,74.74
2023-04-15T07:28:02.035Z,74.60
2023-04-15T07:29:02.174Z,74.29
2023-04-15T07:30:02.029Z,74.40
2023-04-15T07:31:01.998Z,74.49
2023-04-15T07:32:01.975Z,73.85
2023-04-15T07:33:02.031Z,73.54
2023-04-15T07:34:01.931Z,73.33
2023-04-15T07:35:01.954Z,73.61
2023-04-15T07:36:01.886Z,73.61
2023-04-15T07:37:01.895Z,73.30
2023-04-15T07:38:01.908Z,72.99
2023-04-15T07:39:02.013Z,72.86
2023-04-15T07:40:01.853Z,72.55
2023-04-15T07:41:01.930Z,72.75
2023-04-15T07:42:01.817Z,72.75
2023-04-15T07:43:01.799Z,72.61
2023-04-15T07:44:01.784Z,72.41
2023-04-15T07:45:01.815Z,72.20
2023-04-15T07:46:01.788Z,71.39
2023-04-15T07:47:01.754Z,71.18
2023-04-15T07:48:01.819Z,71.90
2023-04-15T07:49:02.097Z,71.90
2023-04-15T07:50:01.768Z,71.69
2023-04-15T07:51:01.734Z,71.59
2023-04-15T07:52:01.715Z,71.59
2023-04-15T07:53:01.696Z,71.90
2023-04-15T07:54:01.815Z,71.69
2023-04-15T07:55:01.718Z,71.49
2023-04-15T07:56:01.711Z,71.80
2023-04-15T07:57:06.566Z,72.41
2023-04-15T07:58:02.853Z,71.59
2023-04-15T07:59:01.842Z,71.90
2023-04-15T08:00:02.348Z,71.80
2023-04-15T08:01:01.615Z,71.77
2023-04-15T08:02:01.703Z,71.49
2023-04-15T08:03:01.905Z,71.45
2023-04-15T08:04:01.666Z,71.56
2023-04-15T08:05:01.611Z,71.15
2023-04-15T08:06:01.539Z,71.25
2023-04-15T08:07:01.565Z,71.56
2023-04-15T08:08:01.541Z,71.32
2023-04-15T08:09:02.479Z,71.53
2023-04-15T08:10:01.516Z,71.83
2023-04-15T08:11:01.511Z,71.73
2023-04-15T08:12:01.503Z,71.01
2023-04-15T08:13:01.541Z,71.22
2023-04-15T08:14:01.448Z,70.78
2023-04-15T08:15:01.527Z,70.57
2023-04-15T08:16:01.476Z,70.47
2023-04-15T08:17:01.596Z,70.67
2023-04-15T08:18:01.404Z,70.57
2023-04-15T08:19:01.996Z,70.47
2023-04-15T08:20:01.746Z,70.37
2023-04-15T08:21:01.399Z,70.34
2023-04-15T08:22:01.404Z,70.37
2023-04-15T08:23:01.340Z,70.75
2023-04-15T08:24:01.362Z,70.23
2023-04-15T08:25:01.356Z,70.13
2023-04-15T08:26:03.104Z,70.51
2023-04-15T08:27:01.336Z,70.10
2023-04-15T08:28:01.296Z,70.00
2023-04-15T08:29:01.532Z,70.40
2023-04-15T08:30:03.384Z,69.79
2023-04-15T08:31:08.312Z,70.30
2023-04-15T08:32:08.256Z,70.20
2023-04-15T08:33:09.239Z,70.06
2023-04-15T08:34:10.989Z,69.76
2023-04-15T08:35:10.044Z,69.45
2023-04-15T08:36:01.553Z,68.94
2023-04-15T08:37:01.189Z,69.04
2023-04-15T08:38:01.446Z,69.04
2023-04-15T08:39:01.536Z,68.74
2023-04-15T08:40:01.178Z,68.94
2023-04-15T08:41:03.886Z,68.53
2023-04-15T08:42:01.127Z,68.60
2023-04-15T08:43:01.122Z,68.19
2023-04-15T08:44:01.136Z,67.89
2023-04-15T08:45:01.151Z,68.19
2023-04-15T08:46:01.098Z,68.02
2023-04-15T08:47:01.194Z,68.63
2023-04-15T08:48:01.106Z,68.53
2023-04-15T08:49:01.354Z,68.80
2023-04-15T08:50:01.059Z,68.47
2023-04-15T08:51:01.065Z,68.37
2023-04-15T08:52:01.018Z,68.57
2023-04-15T08:53:01.032Z,68.26
2023-04-15T08:54:01.011Z,67.85
2023-04-15T08:55:00.973Z,68.47
2023-04-15T08:56:01.007Z,67.96
2023-04-15T08:57:00.949Z,68.44
2023-04-15T08:58:00.998Z,67.62
2023-04-15T08:59:01.188Z,67.85
2023-04-15T09:00:01.836Z,67.55
2023-04-15T09:01:00.950Z,68.13
2023-04-15T09:02:00.963Z,67.82
2023-04-15T09:03:00.945Z,67.99
2023-04-15T09:04:00.978Z,67.59
2023-04-15T09:05:00.877Z,66.94
2023-04-15T09:06:00.935Z,65.89
2023-04-15T09:07:02.818Z,65.92
2023-04-15T09:08:00.942Z,65.52
2023-04-15T09:09:01.061Z,65.72
2023-04-15T09:10:00.855Z,65.83
2023-04-15T09:11:00.800Z,65.92
2023-04-15T09:12:00.811Z,65.69
2023-04-15T09:13:00.788Z,66.00
2023-04-15T09:14:00.832Z,66.10
2023-04-15T09:15:00.767Z,65.69
2023-04-15T09:16:01.580Z,64.47
2023-04-15T09:17:03.604Z,64.98
2023-04-15T09:18:00.831Z,65.36
2023-04-15T09:19:00.998Z,61.49
2023-04-15T09:20:00.728Z,60.39
2023-04-15T09:21:00.713Z,60.98
2023-04-15T09:22:00.680Z,60.57
2023-04-15T09:23:00.703Z,59.45
2023-04-15T09:24:00.920Z,59.42
2023-04-15T09:25:00.689Z,57.52
2023-04-15T09:26:00.637Z,56.50
2023-04-15T09:27:00.633Z,57.42
2023-04-15T09:28:00.630Z,57.62
2023-04-15T09:29:00.617Z,57.59
2023-04-15T09:30:00.695Z,56.29
2023-04-15T09:31:00.642Z,56.20
2023-04-15T09:32:00.664Z,56.29
2023-04-15T09:33:00.597Z,55.91
2023-04-15T09:34:00.856Z,56.40
2023-04-15T09:35:00.550Z,55.79
2023-04-15T09:36:00.508Z,55.99
2023-04-15T09:37:00.669Z,56.20
2023-04-15T09:38:00.503Z,56.27
2023-04-15T09:39:00.486Z,55.55
2023-04-15T09:40:00.625Z,55.55
2023-04-15T09:41:00.496Z,55.79
2023-04-15T09:42:00.495Z,56.16
2023-04-15T09:43:00.489Z,55.96
2023-04-15T09:44:00.739Z,56.14
2023-04-15T09:45:00.434Z,55.22
2023-04-15T09:46:00.497Z,55.12
2023-04-15T09:47:00.401Z,55.53
2023-04-15T09:48:00.718Z,55.33
2023-04-15T09:49:00.436Z,55.94
2023-04-15T09:50:00.538Z,54.61
2023-04-15T09:51:00.374Z,55.53
2023-04-15T09:52:05.729Z,55.43
2023-04-15T09:53:01.325Z,55.43
2023-04-15T09:54:00.450Z,55.43
2023-04-15T09:55:00.435Z,54.94
2023-04-15T09:56:00.275Z,55.15
2023-04-15T09:57:00.294Z,55.15
2023-04-15T09:58:00.323Z,55.05
2023-04-15T09:59:00.267Z,54.74
2023-04-15T10:00:00.322Z,54.33
2023-04-15T10:01:00.330Z,54.85
2023-04-15T10:02:00.294Z,54.13
2023-04-15T10:03:00.395Z,54.74
2023-04-15T10:04:00.380Z,55.12
2023-04-15T10:05:00.199Z,55.00
2023-04-15T10:06:00.251Z,53.80
2023-04-15T10:07:00.196Z,54.92
2023-04-15T10:08:00.162Z,53.59
2023-04-15T10:09:08.174Z,54.33
2023-04-15T10:10:09.424Z,55.15
2023-04-15T10:11:00.146Z,54.72
2023-04-15T10:12:00.104Z,54.72
2023-04-15T10:13:00.106Z,55.12
2023-04-15T10:14:00.648Z,54.90
2023-04-15T10:15:00.069Z,54.59
2023-04-15T10:16:00.094Z,54.31
2023-04-15T10:17:07.075Z,55.02
2023-04-15T10:18:07.082Z,55.30
2023-04-15T10:19:07.369Z,55.30
2023-04-15T10:20:00.046Z,54.92
2023-04-15T10:21:08.522Z,55.43
2023-04-15T10:22:07.345Z,55.63
2023-04-15T10:23:09.528Z,55.60
2023-04-15T10:24:00.330Z,55.40
2023-04-15T10:24:59.991Z,55.71
2023-04-15T10:26:00.961Z,56.12
2023-04-15T10:26:59.930Z,56.09
2023-04-15T10:27:59.901Z,55.30
2023-04-15T10:29:00.281Z,56.32
2023-04-15T10:30:00.779Z,55.60
2023-04-15T10:30:59.972Z,55.91
2023-04-15T10:31:59.901Z,56.12
2023-04-15T10:32:59.882Z,56.12
2023-04-15T10:34:00.072Z,56.73
2023-04-15T10:34:59.830Z,56.29
2023-04-15T10:35:59.885Z,56.29
2023-04-15T10:36:59.851Z,56.80
2023-04-15T10:37:59.816Z,56.19
2023-04-15T10:38:59.807Z,56.06
2023-04-15T10:39:59.802Z,55.96
2023-04-15T10:40:59.787Z,55.86
2023-04-15T10:42:00.141Z,56.37
2023-04-15T10:42:59.767Z,55.86
2023-04-15T10:43:59.877Z,55.96
2023-04-15T10:45:00.138Z,55.66
2023-04-15T10:45:59.721Z,55.18
2023-04-15T10:46:59.792Z,56.62
2023-04-15T10:48:01.030Z,56.90
2023-04-15T10:48:59.740Z,55.58
2023-04-15T10:49:59.694Z,55.35
2023-04-15T10:50:59.677Z,55.15
2023-04-15T10:51:59.700Z,55.07
2023-04-15T10:52:59.641Z,54.97
2023-04-15T10:53:59.658Z,54.97
2023-04-15T10:55:00.371Z,55.15
2023-04-15T10:55:59.605Z,55.66
2023-04-15T10:56:59.623Z,55.32
2023-04-15T10:57:59.580Z,54.99
2023-04-15T10:58:59.567Z,55.10
2023-04-15T10:59:59.562Z,54.59
2023-04-15T11:00:59.540Z,54.79
2023-04-15T11:01:59.601Z,54.59
2023-04-15T11:02:59.822Z,54.92
2023-04-15T11:04:04.824Z,55.73
2023-04-15T11:04:59.750Z,54.92
2023-04-15T11:05:59.489Z,54.92
2023-04-15T11:06:59.515Z,55.76
2023-04-15T11:07:59.480Z,56.57
2023-04-15T11:09:03.463Z,57.00
2023-04-15T11:09:59.454Z,57.08
2023-04-15T11:10:59.468Z,57.48
2023-04-15T11:11:59.487Z,57.18
2023-04-15T11:12:59.458Z,57.28
2023-04-15T11:13:59.403Z,57.48
2023-04-15T11:14:59.683Z,57.15
2023-04-15T11:15:59.394Z,57.86
2023-04-15T11:16:59.369Z,57.15
2023-04-15T11:17:59.459Z,57.46
2023-04-15T11:18:59.362Z,57.84
2023-04-15T11:19:59.329Z,57.76
2023-04-15T11:20:59.322Z,58.29
2023-04-15T11:21:59.309Z,58.80
2023-04-15T11:23:08.181Z,59.14
2023-04-15T11:24:02.148Z,59.37
2023-04-15T11:24:59.326Z,59.57
2023-04-15T11:25:59.277Z,60.46
2023-04-15T11:26:59.259Z,59.64
2023-04-15T11:27:59.234Z,59.62
2023-04-15T11:28:59.218Z,59.72
2023-04-15T11:29:59.263Z,59.01
2023-04-15T11:30:59.211Z,59.54
2023-04-15T11:31:59.334Z,59.75
2023-04-15T11:32:59.655Z,59.64
2023-04-15T11:34:04.115Z,59.64
2023-04-15T11:35:02.050Z,59.95
2023-04-15T11:35:59.671Z,60.46
2023-04-15T11:36:59.159Z,60.15
2023-04-15T11:37:59.147Z,60.49
2023-04-15T11:38:59.400Z,61.10
2023-04-15T11:39:59.106Z,60.99
2023-04-15T11:40:59.083Z,60.99
2023-04-15T11:41:59.075Z,61.30
2023-04-15T11:42:59.682Z,61.78
2023-04-15T11:44:02.234Z,60.76
2023-04-15T11:45:00.158Z,60.79
2023-04-15T11:45:59.156Z,61.30
2023-04-15T11:46:59.824Z,61.30
2023-04-15T11:47:59.072Z,61.71
2023-04-15T11:48:58.987Z,61.20
2023-04-15T11:49:59.011Z,61.27
2023-04-15T11:50:58.996Z,60.76
2023-04-15T11:51:58.966Z,60.46
2023-04-15T11:52:58.946Z,60.59
2023-04-15T11:53:58.951Z,61.30
2023-04-15T11:54:58.946Z,61.94
2023-04-15T11:55:58.937Z,61.94
2023-04-15T11:56:58.909Z,62.24
2023-04-15T11:57:58.895Z,62.21
2023-04-15T11:58:58.883Z,61.81
2023-04-15T11:59:58.888Z,62.11
2023-04-15T12:00:58.881Z,61.81
2023-04-15T12:01:58.919Z,61.71
2023-04-15T12:02:58.946Z,61.81
2023-04-15T12:03:59.007Z,61.91
2023-04-15T12:04:58.848Z,61.81
2023-04-15T12:05:58.801Z,61.57
2023-04-15T12:06:58.800Z,61.27
2023-04-15T12:07:58.764Z,61.17
2023-04-15T12:09:08.651Z,61.37
2023-04-15T12:10:09.640Z,61.17
2023-04-15T12:11:06.314Z,61.27
2023-04-15T12:12:06.272Z,60.94
2023-04-15T12:12:58.712Z,60.63
2023-04-15T12:13:58.710Z,60.63
2023-04-15T12:14:58.726Z,60.56
2023-04-15T12:15:58.727Z,60.79
2023-04-15T12:16:58.773Z,61.81
2023-04-15T12:17:58.713Z,61.60
2023-04-15T12:18:58.663Z,61.51
2023-04-15T12:19:58.672Z,61.83
2023-04-15T12:20:58.650Z,62.14
2023-04-15T12:22:00.086Z,62.24
2023-04-15T12:22:58.619Z,62.75
2023-04-15T12:23:58.638Z,62.78
2023-04-15T12:24:58.597Z,63.22
2023-04-15T12:25:58.588Z,63.32
2023-04-15T12:26:58.575Z,63.53
2023-04-15T12:27:58.572Z,63.73
2023-04-15T12:28:58.535Z,64.03
2023-04-15T12:29:58.590Z,64.14
2023-04-15T12:30:58.531Z,64.23
2023-04-15T12:31:58.521Z,64.54
2023-04-15T12:32:58.576Z,64.14
2023-04-15T12:33:58.487Z,64.34
2023-04-15T12:34:58.476Z,64.54
2023-04-15T12:35:58.671Z,64.57
2023-04-15T12:36:58.482Z,65.08
2023-04-15T12:37:58.471Z,65.19
2023-04-15T12:38:59.178Z,65.39
2023-04-15T12:39:58.433Z,65.83
2023-04-15T12:40:58.425Z,66.23
2023-04-15T12:41:58.391Z,66.64
2023-04-15T12:42:58.384Z,66.74
2023-04-15T12:43:58.359Z,66.94
2023-04-15T12:44:58.388Z,66.94
2023-04-15T12:45:58.362Z,66.85
2023-04-15T12:46:58.391Z,66.85
2023-04-15T12:47:58.347Z,66.94
2023-04-15T12:48:58.312Z,66.74
2023-04-15T12:49:58.304Z,66.97
2023-04-15T12:50:58.313Z,67.38
2023-04-15T12:51:58.288Z,67.29